sensor_id;sensor_type;location;lat;lon;timestamp;pressure;altitude;pressure_sealevel;temperature;humidity
74431;BME280;62863;52.062;23.764;2024-03-02T00:04:50;1024.4;;;6.9;71.5
74431;BME280;62863;52.062;23.764;2024-03-02T00:09:38;1024.3;;;7;71.2
74431;BME280;62863;52.062;23.764;2024-03-02T00:14:46;1024.2;;;7;71.1
74431;BME280;62863;52.062;23.764;2024-03-02T00:19:58;1024.3;;;7;70.9
74431;BME280;62863;52.062;23.764;2024-03-02T00:24:50;1024.3;;;7;70.8
74431;BME280;62863;52.062;23.764;2024-03-02T00:29:42;1024.2;;;7;70.7
74431;BME280;62863;52.062;23.764;2024-03-02T00:35:00;1024.2;;;7;70.8
74431;BME280;62863;52.062;23.764;2024-03-02T00:40:01;1024;;;7.1;70.6
74431;BME280;62863;52.062;23.764;2024-03-02T00:44:50;1024;;;7;70.8
74431;BME280;62863;52.062;23.764;2024-03-02T00:49:32;1024;;;7;71
74431;BME280;62863;52.062;23.764;2024-03-02T00:54:26;1024;;;7.1;70.8
74431;BME280;62863;52.062;23.764;2024-03-02T00:59:32;1024.1;;;7.1;70.7
74431;BME280;62863;52.062;23.764;2024-03-02T01:04:32;1024.2;;;7;70.8
74431;BME280;62863;52.062;23.764;2024-03-02T01:09:32;1024.2;;;7.1;71
74431;BME280;62863;52.062;23.764;2024-03-02T01:14:32;1024.2;;;7.1;70.5
74431;BME280;62863;52.062;23.764;2024-03-02T01:19:46;1024.2;;;7.1;70.5
74431;BME280;62863;52.062;23.764;2024-03-02T01:24:38;1024.2;;;7.1;70.5
74431;BME280;62863;52.062;23.764;2024-03-02T01:29:58;1024.1;;;7;70.5
74431;BME280;62863;52.062;23.764;2024-03-02T01:34:50;1024;;;7;70.7
74431;BME280;62863;52.062;23.764;2024-03-02T01:39:46;1024;;;7.1;70.9
74431;BME280;62863;52.062;23.764;2024-03-02T01:44:26;1024;;;7.1;71.1
74431;BME280;62863;52.062;23.764;2024-03-02T01:49:46;1024;;;7.1;71.1
74431;BME280;62863;52.062;23.764;2024-03-02T01:54:50;1023.9;;;7.1;71.1
74431;BME280;62863;52.062;23.764;2024-03-02T01:59:38;1023.8;;;7.1;70.9
74431;BME280;62863;52.062;23.764;2024-03-02T02:04:36;1023.8;;;7.1;70.9
74431;BME280;62863;52.062;23.764;2024-03-02T02:09:50;1023.7;;;7.1;70.5
74431;BME280;62863;52.062;23.764;2024-03-02T02:14:47;1023.7;;;7;71
74431;BME280;62863;52.062;23.764;2024-03-02T02:19:40;1023.6;;;7;71
74431;BME280;62863;52.062;23.764;2024-03-02T02:24:50;1023.5;;;7.1;71
74431;BME280;62863;52.062;23.764;2024-03-02T02:29:32;1023.6;;;7;71.4
74431;BME280;62863;52.062;23.764;2024-03-02T02:34:33;1023.6;;;7;71.8
74431;BME280;62863;52.062;23.764;2024-03-02T02:39:40;1023.5;;;7.1;72
74431;BME280;62863;52.062;23.764;2024-03-02T02:44:26;1023.6;;;7.1;71.8
74431;BME280;62863;52.062;23.764;2024-03-02T02:49:50;1023.5;;;7.2;71.9
74431;BME280;62863;52.062;23.764;2024-03-02T02:54:46;1023.5;;;7.2;71.7
74431;BME280;62863;52.062;23.764;2024-03-02T02:59:32;1023.6;;;7.2;71.3
74431;BME280;62863;52.062;23.764;2024-03-02T03:04:40;1023.6;;;7.2;71.3
74431;BME280;62863;52.062;23.764;2024-03-02T03:09:50;1023.7;;;7.1;71.3
74431;BME280;62863;52.062;23.764;2024-03-02T03:14:43;1023.7;;;7.1;71.4
74431;BME280;62863;52.062;23.764;2024-03-02T03:19:38;1023.7;;;7;71.5
74431;BME280;62863;52.062;23.764;2024-03-02T03:24:28;1023.6;;;7;71.7
74431;BME280;62863;52.062;23.764;2024-03-02T03:29:50;1023.5;;;7;71.8
74431;BME280;62863;52.062;23.764;2024-03-02T03:34:27;1023.5;;;7;72.1
74431;BME280;62863;52.062;23.764;2024-03-02T03:39:26;1023.4;;;7;72.2
74431;BME280;62863;52.062;23.764;2024-03-02T03:44:50;1023.3;;;7;72
74431;BME280;62863;52.062;23.764;2024-03-02T03:49:52;1023.3;;;7.1;72
74431;BME280;62863;52.062;23.764;2024-03-02T03:54:34;1023.2;;;7.1;71.9
74431;BME280;62863;52.062;23.764;2024-03-02T03:59:50;1023.1;;;7.1;71.6
74431;BME280;62863;52.062;23.764;2024-03-02T04:04:26;1023.1;;;7;71.6
74431;BME280;62863;52.062;23.764;2024-03-02T04:09:33;1023.1;;;7;71.6
74431;BME280;62863;52.062;23.764;2024-03-02T04:14:42;1023.2;;;7;71.7
74431;BME280;62863;52.062;23.764;2024-03-02T04:19:26;1023.3;;;7.1;71.7
74431;BME280;62863;52.062;23.764;2024-03-02T04:24:32;1023.2;;;7.1;71.6
74431;BME280;62863;52.062;23.764;2024-03-02T04:29:58;1023.2;;;7.1;71.9
74431;BME280;62863;52.062;23.764;2024-03-02T04:34:44;1023.2;;;7;71.8
74431;BME280;62863;52.062;23.764;2024-03-02T04:39:52;1023.1;;;6.9;71.9
74431;BME280;62863;52.062;23.764;2024-03-02T04:44:58;1023.2;;;6.8;72
74431;BME280;62863;52.062;23.764;2024-03-02T04:49:32;1023.3;;;6.7;72
74431;BME280;62863;52.062;23.764;2024-03-02T04:55:00;1023.3;;;6.7;72
74431;BME280;62863;52.062;23.764;2024-03-02T04:59:59;1023.4;;;6.6;72.2
74431;BME280;62863;52.062;23.764;2024-03-02T05:04:50;1023.4;;;6.6;72.1
74431;BME280;62863;52.062;23.764;2024-03-02T05:09:39;1023.4;;;6.5;72.1
74431;BME280;62863;52.062;23.764;2024-03-02T05:14:46;1023.4;;;6.5;72.1
74431;BME280;62863;52.062;23.764;2024-03-02T05:19:51;1023.4;;;6.4;72.2
74431;BME280;62863;52.062;23.764;2024-03-02T05:24:59;1023.5;;;6.4;72.4
74431;BME280;62863;52.062;23.764;2024-03-02T05:29:43;1023.4;;;6.4;72.8
74431;BME280;62863;52.062;23.764;2024-03-02T05:34:59;1023.5;;;6.4;72.7
74431;BME280;62863;52.062;23.764;2024-03-02T05:39:27;1023.6;;;6.5;72.6
74431;BME280;62863;52.062;23.764;2024-03-02T05:44:33;1023.7;;;6.5;72.6
74431;BME280;62863;52.062;23.764;2024-03-02T05:49:33;1023.8;;;6.5;72.5
74431;BME280;62863;52.062;23.764;2024-03-02T05:54:27;1023.9;;;6.5;72.2
74431;BME280;62863;52.062;23.764;2024-03-02T05:59:37;1023.8;;;6.5;72
74431;BME280;62863;52.062;23.764;2024-03-02T06:04:35;1023.8;;;6.5;71.9
74431;BME280;62863;52.062;23.764;2024-03-02T06:09:29;1023.7;;;6.4;71.8
74431;BME280;62863;52.062;23.764;2024-03-02T06:14:27;1023.8;;;6.4;71.9
74431;BME280;62863;52.062;23.764;2024-03-02T06:19:59;1023.8;;;6.5;71.8
74431;BME280;62863;52.062;23.764;2024-03-02T06:24:33;1023.8;;;6.5;71.9
74431;BME280;62863;52.062;23.764;2024-03-02T06:29:49;1023.8;;;6.6;71.7
74431;BME280;62863;52.062;23.764;2024-03-02T06:34:35;1023.7;;;6.6;71.6
74431;BME280;62863;52.062;23.764;2024-03-02T06:39:53;1023.7;;;6.7;71.3
74431;BME280;62863;52.062;23.764;2024-03-02T06:44:33;1023.7;;;6.7;71.2
74431;BME280;62863;52.062;23.764;2024-03-02T06:50:01;1023.7;;;6.8;71.1
74431;BME280;62863;52.062;23.764;2024-03-02T06:54:23;1023.7;;;6.9;70.5
74431;BME280;62863;52.062;23.764;2024-03-02T07:00:01;1023.8;;;6.9;70.3
74431;BME280;62863;52.062;23.764;2024-03-02T07:04:35;1023.9;;;6.9;70.1
74431;BME280;62863;52.062;23.764;2024-03-02T07:09:59;1024;;;6.9;69.9
74431;BME280;62863;52.062;23.764;2024-03-02T07:14:45;1024.1;;;7.1;69.6
74431;BME280;62863;52.062;23.764;2024-03-02T07:19:27;1024.1;;;7.2;69.6
74431;BME280;62863;52.062;23.764;2024-03-02T07:24:39;1024.1;;;7.4;69.1
74431;BME280;62863;52.062;23.764;2024-03-02T07:29:27;1024.1;;;7.4;68.5
74431;BME280;62863;52.062;23.764;2024-03-02T07:34:27;1024.1;;;7.5;68.2
74431;BME280;62863;52.062;23.764;2024-03-02T07:39:35;1024;;;7.6;67.8
74431;BME280;62863;52.062;23.764;2024-03-02T07:44:51;1024.1;;;7.6;67.9
74431;BME280;62863;52.062;23.764;2024-03-02T07:49:41;1024.1;;;7.7;67.8
74431;BME280;62863;52.062;23.764;2024-03-02T07:55:01;1024.1;;;7.7;67.3
74431;BME280;62863;52.062;23.764;2024-03-02T07:59:41;1024.1;;;7.8;67.2
74431;BME280;62863;52.062;23.764;2024-03-02T08:05:01;1024;;;7.9;66.9
74431;BME280;62863;52.062;23.764;2024-03-02T08:09:41;1024;;;8;66.5
74431;BME280;62863;52.062;23.764;2024-03-02T08:14:53;1024;;;7.9;66.4
74431;BME280;62863;52.062;23.764;2024-03-02T08:19:41;1024;;;8;66.3
74431;BME280;62863;52.062;23.764;2024-03-02T08:24:49;1024;;;8.1;66.1
74431;BME280;62863;52.062;23.764;2024-03-02T08:30:01;1024;;;8.2;65.6
74431;BME280;62863;52.062;23.764;2024-03-02T08:34:53;1023.9;;;8.3;65.6
74431;BME280;62863;52.062;23.764;2024-03-02T08:39:27;1023.9;;;8.2;65.1
74431;BME280;62863;52.062;23.764;2024-03-02T08:45:01;1023.9;;;8.3;65.1
74431;BME280;62863;52.062;23.764;2024-03-02T08:50:01;1024;;;8.5;64.6
74431;BME280;62863;52.062;23.764;2024-03-02T08:54:51;1024;;;8.6;64.1
74431;BME280;62863;52.062;23.764;2024-03-02T08:59:59;1024;;;8.8;63.7
74431;BME280;62863;52.062;23.764;2024-03-02T09:04:39;1024;;;8.9;63.2
74431;BME280;62863;52.062;23.764;2024-03-02T09:09:39;1024;;;9.2;62.4
74431;BME280;62863;52.062;23.764;2024-03-02T09:14:27;1024;;;9.3;62.2
74431;BME280;62863;52.062;23.764;2024-03-02T09:19:27;1023.9;;;9.5;61.6
74431;BME280;62863;52.062;23.764;2024-03-02T09:24:39;1023.9;;;9.4;61.5
74431;BME280;62863;52.062;23.764;2024-03-02T09:29:49;1023.9;;;9.5;61.2
74431;BME280;62863;52.062;23.764;2024-03-02T09:34:39;1023.8;;;9.3;61.3
74431;BME280;62863;52.062;23.764;2024-03-02T09:40:01;1023.9;;;9.3;61.5
74431;BME280;62863;52.062;23.764;2024-03-02T09:44:51;1023.9;;;9.3;61.3
74431;BME280;62863;52.062;23.764;2024-03-02T09:50:01;1023.9;;;9.4;60.9
74431;BME280;62863;52.062;23.764;2024-03-02T09:54:27;1023.9;;;9.4;60.6
74431;BME280;62863;52.062;23.764;2024-03-02T09:59:29;1023.9;;;9.5;60.5
74431;BME280;62863;52.062;23.764;2024-03-02T10:04:45;1023.8;;;9.5;60.2
74431;BME280;62863;52.062;23.764;2024-03-02T10:09:27;1023.9;;;9.6;60
74431;BME280;62863;52.062;23.764;2024-03-02T10:14:43;1023.8;;;9.8;59.7
74431;BME280;62863;52.062;23.764;2024-03-02T10:19:51;1023.8;;;9.9;59.5
74431;BME280;62863;52.062;23.764;2024-03-02T10:25:01;1023.8;;;9.9;59.3
74431;BME280;62863;52.062;23.764;2024-03-02T10:29:45;1023.9;;;9.9;59
74431;BME280;62863;52.062;23.764;2024-03-02T10:34:53;1023.9;;;10.1;59.1
74431;BME280;62863;52.062;23.764;2024-03-02T10:39:39;1023.9;;;10.2;58.8
74431;BME280;62863;52.062;23.764;2024-03-02T10:45:01;1023.9;;;10.3;58.5
74431;BME280;62863;52.062;23.764;2024-03-02T10:49:27;1023.9;;;10.4;57.9
74431;BME280;62863;52.062;23.764;2024-03-02T10:54:27;1023.9;;;10.4;57.8
74431;BME280;62863;52.062;23.764;2024-03-02T10:59:53;1023.8;;;10.4;57.4
74431;BME280;62863;52.062;23.764;2024-03-02T11:05:01;1023.8;;;10.2;57.5
74431;BME280;62863;52.062;23.764;2024-03-02T11:09:53;1023.8;;;10.2;57.8
74431;BME280;62863;52.062;23.764;2024-03-02T11:15:01;1023.7;;;10.5;57.4
74431;BME280;62863;52.062;23.764;2024-03-02T11:19:51;1023.7;;;10.8;57
74431;BME280;62863;52.062;23.764;2024-03-02T11:24:49;1023.7;;;11;56.5
74431;BME280;62863;52.062;23.764;2024-03-02T11:29:44;1023.7;;;10.9;56.2
74431;BME280;62863;52.062;23.764;2024-03-02T11:34:49;1023.6;;;10.8;56
74431;BME280;62863;52.062;23.764;2024-03-02T11:39:51;1023.6;;;10.8;55.9
74431;BME280;62863;52.062;23.764;2024-03-02T11:44:27;1023.6;;;10.8;55.6
74431;BME280;62863;52.062;23.764;2024-03-02T11:49:44;1023.6;;;10.8;55.2
74431;BME280;62863;52.062;23.764;2024-03-02T11:54:49;1023.6;;;10.8;55.2
74431;BME280;62863;52.062;23.764;2024-03-02T11:59:57;1023.6;;;10.9;54.9
74431;BME280;62863;52.062;23.764;2024-03-02T12:04:43;1023.6;;;11;55
74431;BME280;62863;52.062;23.764;2024-03-02T12:09:58;1023.5;;;11.2;54.4
74431;BME280;62863;52.062;23.764;2024-03-02T12:14:27;1023.5;;;11.1;54.5
74431;BME280;62863;52.062;23.764;2024-03-02T12:19:33;1023.5;;;11.2;54.6
74431;BME280;62863;52.062;23.764;2024-03-02T12:24:33;1023.5;;;11.1;54.5
74431;BME280;62863;52.062;23.764;2024-03-02T12:29:33;1023.4;;;11.2;54.4
74431;BME280;62863;52.062;23.764;2024-03-02T12:34:27;1023.4;;;11.2;54.3
74431;BME280;62863;52.062;23.764;2024-03-02T12:39:57;1023.4;;;11.3;53.9
74431;BME280;62863;52.062;23.764;2024-03-02T12:44:49;1023.4;;;11.2;53.7
74431;BME280;62863;52.062;23.764;2024-03-02T12:49:57;1023.3;;;11.2;53.6
74431;BME280;62863;52.062;23.764;2024-03-02T12:54:53;1023.3;;;11;53.7
74431;BME280;62863;52.062;23.764;2024-03-02T12:59:45;1023.3;;;11;53.8
74431;BME280;62863;52.062;23.764;2024-03-02T13:04:57;1023.3;;;11;53.9
74431;BME280;62863;52.062;23.764;2024-03-02T13:09:59;1023.3;;;11;54
74431;BME280;62863;52.062;23.764;2024-03-02T13:14:53;1023.3;;;11;54.3
74431;BME280;62863;52.062;23.764;2024-03-02T13:19:43;1023.3;;;11;54.1
74431;BME280;62863;52.062;23.764;2024-03-02T13:24:47;1023.3;;;10.9;54.5
74431;BME280;62863;52.062;23.764;2024-03-02T13:29:49;1023.3;;;11.2;54.2
74431;BME280;62863;52.062;23.764;2024-03-02T13:34:59;1023.3;;;11.2;53.9
74431;BME280;62863;52.062;23.764;2024-03-02T13:39:43;1023.3;;;11.1;53.8
74431;BME280;62863;52.062;23.764;2024-03-02T13:44:59;1023.3;;;11.2;53.7
74431;BME280;62863;52.062;23.764;2024-03-02T13:49:29;1023.2;;;11.2;53.7
74431;BME280;62863;52.062;23.764;2024-03-02T13:54:27;1023.2;;;11.3;53.5
74431;BME280;62863;52.062;23.764;2024-03-02T13:59:33;1023.2;;;11.3;53.2
74431;BME280;62863;52.062;23.764;2024-03-02T14:04:49;1023.3;;;11.4;53.2
74431;BME280;62863;52.062;23.764;2024-03-02T14:09:27;1023.3;;;11.3;53
74431;BME280;62863;52.062;23.764;2024-03-02T14:14:27;1023.3;;;11.4;53
74431;BME280;62863;52.062;23.764;2024-03-02T14:19:29;1023.3;;;11.3;52.9
74431;BME280;62863;52.062;23.764;2024-03-02T14:24:27;1023.3;;;11.2;53
74431;BME280;62863;52.062;23.764;2024-03-02T14:29:57;1023.3;;;11.1;53
74431;BME280;62863;52.062;23.764;2024-03-02T14:34:37;1023.3;;;11.1;53
74431;BME280;62863;52.062;23.764;2024-03-02T14:39:57;1023.3;;;11.2;53.1
74431;BME280;62863;52.062;23.764;2024-03-02T14:44:27;1023.2;;;11.1;53
74431;BME280;62863;52.062;23.764;2024-03-02T14:49:51;1023.2;;;11.1;53.2
74431;BME280;62863;52.062;23.764;2024-03-02T14:54:33;1023.2;;;11.1;53.3
74431;BME280;62863;52.062;23.764;2024-03-02T14:59:51;1023.2;;;11.1;53.3
74431;BME280;62863;52.062;23.764;2024-03-02T15:04:57;1023.2;;;11.1;53.8
74431;BME280;62863;52.062;23.764;2024-03-02T15:09:51;1023.2;;;11;53.9
74431;BME280;62863;52.062;23.764;2024-03-02T15:14:43;1023.2;;;10.9;54.2
74431;BME280;62863;52.062;23.764;2024-03-02T15:19:57;1023.1;;;10.9;54.3
74431;BME280;62863;52.062;23.764;2024-03-02T15:24:57;1023.1;;;10.8;54.5
74431;BME280;62863;52.062;23.764;2024-03-02T15:29:49;1023.1;;;10.7;54.6
74431;BME280;62863;52.062;23.764;2024-03-02T15:34:37;1023.1;;;10.5;55
74431;BME280;62863;52.062;23.764;2024-03-02T15:39:35;1023.2;;;10.3;55.7
74431;BME280;62863;52.062;23.764;2024-03-02T15:44:39;1023.2;;;10.3;55.9
74431;BME280;62863;52.062;23.764;2024-03-02T15:49:27;1023.2;;;10.3;55.9
74431;BME280;62863;52.062;23.764;2024-03-02T15:54:49;1023.2;;;10.2;56.1
74431;BME280;62863;52.062;23.764;2024-03-02T15:59:37;1023.2;;;10.2;56.3
74431;BME280;62863;52.062;23.764;2024-03-02T16:04:57;1023.2;;;10.1;56.5
74431;BME280;62863;52.062;23.764;2024-03-02T16:09:33;1023.2;;;10.1;56.6
74431;BME280;62863;52.062;23.764;2024-03-02T16:14:57;1023.2;;;10.1;56.7
74431;BME280;62863;52.062;23.764;2024-03-02T16:19:57;1023.2;;;10.1;56.7
74431;BME280;62863;52.062;23.764;2024-03-02T16:24:51;1023.2;;;10;56.8
74431;BME280;62863;52.062;23.764;2024-03-02T16:29:40;1023.2;;;9.9;57.1
74431;BME280;62863;52.062;23.764;2024-03-02T16:34:57;1023.2;;;9.8;57.3
74431;BME280;62863;52.062;23.764;2024-03-02T16:39:57;1023.2;;;9.8;57.5
74431;BME280;62863;52.062;23.764;2024-03-02T16:44:51;1023.3;;;9.7;57.1
74431;BME280;62863;52.062;23.764;2024-03-02T16:49:37;1023.3;;;9.7;56.4
74431;BME280;62863;52.062;23.764;2024-03-02T16:54:57;1023.4;;;9.7;56.3
74431;BME280;62863;52.062;23.764;2024-03-02T16:59:51;1023.4;;;9.7;56.2
74431;BME280;62863;52.062;23.764;2024-03-02T17:04:49;1023.4;;;9.6;55.9
74431;BME280;62863;52.062;23.764;2024-03-02T17:09:51;1023.5;;;9.6;55.9
74431;BME280;62863;52.062;23.764;2024-03-02T17:14:27;1023.5;;;9.6;56
74431;BME280;62863;52.062;23.764;2024-03-02T17:19:27;1023.5;;;9.6;55.8
74431;BME280;62863;52.062;23.764;2024-03-02T17:24:27;1023.5;;;9.5;55.9
74431;BME280;62863;52.062;23.764;2024-03-02T17:29:27;1023.5;;;9.5;55.7
74431;BME280;62863;52.062;23.764;2024-03-02T17:34:37;1023.5;;;9.5;55.5
74431;BME280;62863;52.062;23.764;2024-03-02T17:39:43;1023.6;;;9.4;55.4
74431;BME280;62863;52.062;23.764;2024-03-02T17:44:37;1023.6;;;9.4;55.4
74431;BME280;62863;52.062;23.764;2024-03-02T17:49:55;1023.6;;;9.4;55.1
74431;BME280;62863;52.062;23.764;2024-03-02T17:54:53;1023.6;;;9.4;55.1
74431;BME280;62863;52.062;23.764;2024-03-02T17:59:51;1023.6;;;9.4;54.9
74431;BME280;62863;52.062;23.764;2024-03-02T18:04:41;1023.7;;;9.4;54.5
74431;BME280;62863;52.062;23.764;2024-03-02T18:14:53;1023.7;;;9.5;54.1
74431;BME280;62863;52.062;23.764;2024-03-02T18:19:41;1023.7;;;9.4;54
74431;BME280;62863;52.062;23.764;2024-03-02T18:24:27;1023.7;;;9.4;53.6
74431;BME280;62863;52.062;23.764;2024-03-02T18:29:53;1023.8;;;9.4;53.3
74431;BME280;62863;52.062;23.764;2024-03-02T18:35:01;1023.8;;;9.3;53.3
74431;BME280;62863;52.062;23.764;2024-03-02T18:39:45;1023.8;;;9.3;53.1
74431;BME280;62863;52.062;23.764;2024-03-02T18:44:53;1023.8;;;9.2;53.1
74431;BME280;62863;52.062;23.764;2024-03-02T18:49:27;1023.9;;;9.2;53
74431;BME280;62863;52.062;23.764;2024-03-02T18:54:33;1023.9;;;9.1;53.4
74431;BME280;62863;52.062;23.764;2024-03-02T18:59:33;1024;;;9;53.4
74431;BME280;62863;52.062;23.764;2024-03-02T19:04:27;1024;;;8.9;53.7
74431;BME280;62863;52.062;23.764;2024-03-02T19:09:45;1024;;;8.8;53.8
74431;BME280;62863;52.062;23.764;2024-03-02T19:15:03;1023.9;;;8.6;54.3
74431;BME280;62863;52.062;23.764;2024-03-02T19:19:55;1023.9;;;8.6;54.3
74431;BME280;62863;52.062;23.764;2024-03-02T19:25:04;1024;;;8.3;54.7
74431;BME280;62863;52.062;23.764;2024-03-02T19:30:03;1024;;;8.2;55
74431;BME280;62863;52.062;23.764;2024-03-02T19:34:55;1024;;;8.2;55
74431;BME280;62863;52.062;23.764;2024-03-02T19:40:05;1024.1;;;8.1;55.5
74431;BME280;62863;52.062;23.764;2024-03-02T19:45:05;1024.1;;;8.1;55.8
74431;BME280;62863;52.062;23.764;2024-03-02T19:49:55;1024.1;;;8.1;55.8
74431;BME280;62863;52.062;23.764;2024-03-02T19:54:33;1024.1;;;8;56.1
74431;BME280;62863;52.062;23.764;2024-03-02T19:59:51;1024.1;;;7.9;56.4
74431;BME280;62863;52.062;23.764;2024-03-02T20:04:55;1024.1;;;7.8;56.8
74431;BME280;62863;52.062;23.764;2024-03-02T20:10:05;1024.1;;;7.6;57.4
74431;BME280;62863;52.062;23.764;2024-03-02T20:14:45;1024.1;;;7.6;57.4
74431;BME280;62863;52.062;23.764;2024-03-02T20:19:55;1024.1;;;7.5;57.9
74431;BME280;62863;52.062;23.764;2024-03-02T20:24:39;1024.2;;;7.4;58.3
74431;BME280;62863;52.062;23.764;2024-03-02T20:29:33;1024.2;;;7.3;58.7
74431;BME280;62863;52.062;23.764;2024-03-02T20:34:39;1024.2;;;7.2;59
74431;BME280;62863;52.062;23.764;2024-03-02T20:39:27;1024.2;;;7.1;59.4
74431;BME280;62863;52.062;23.764;2024-03-02T20:44:55;1024.2;;;7.1;59.9
74431;BME280;62863;52.062;23.764;2024-03-02T20:50:05;1024.1;;;7;60.1
74431;BME280;62863;52.062;23.764;2024-03-02T20:54:37;1024.1;;;7;60.1
74431;BME280;62863;52.062;23.764;2024-03-02T20:59:41;1024.1;;;7;60.3
74431;BME280;62863;52.062;23.764;2024-03-02T21:05:05;1024.1;;;6.8;60.6
74431;BME280;62863;52.062;23.764;2024-03-02T21:09:27;1024.1;;;6.8;60.6
74431;BME280;62863;52.062;23.764;2024-03-02T21:15:05;1024;;;6.5;61.3
74431;BME280;62863;52.062;23.764;2024-03-02T21:19:27;1024;;;6.5;61.3
74431;BME280;62863;52.062;23.764;2024-03-02T21:24:55;1024;;;6.4;61.5
74431;BME280;62863;52.062;23.764;2024-03-02T21:29:41;1024;;;6.4;61.7
74431;BME280;62863;52.062;23.764;2024-03-02T21:34:29;1023.9;;;6.3;61.9
74431;BME280;62863;52.062;23.764;2024-03-02T21:40:06;1024;;;6.3;61.9
74431;BME280;62863;52.062;23.764;2024-03-02T21:45:06;1024;;;6.3;61.7
74431;BME280;62863;52.062;23.764;2024-03-02T21:49:45;1024;;;6.3;61.7
74431;BME280;62863;52.062;23.764;2024-03-02T21:55:05;1024;;;6.3;61.4
74431;BME280;62863;52.062;23.764;2024-03-02T22:00:06;1024;;;6.3;61.3
74431;BME280;62863;52.062;23.764;2024-03-02T22:04:29;1024;;;6.3;61.3
74431;BME280;62863;52.062;23.764;2024-03-02T22:09:33;1024;;;6.2;61.3
74431;BME280;62863;52.062;23.764;2024-03-02T22:14:35;1023.9;;;6.2;61.2
74431;BME280;62863;52.062;23.764;2024-03-02T22:20:05;1023.9;;;6.1;61
74431;BME280;62863;52.062;23.764;2024-03-02T22:25:05;1023.8;;;6.1;60.9
74431;BME280;62863;52.062;23.764;2024-03-02T22:29:41;1023.8;;;6.1;60.9
74431;BME280;62863;52.062;23.764;2024-03-02T22:34:41;1023.8;;;6.1;61
74431;BME280;62863;52.062;23.764;2024-03-02T22:39:51;1023.7;;;6;60.9
74431;BME280;62863;52.062;23.764;2024-03-02T22:44:41;1023.8;;;6;60.8
74431;BME280;62863;52.062;23.764;2024-03-02T22:50:05;1023.8;;;6;60.9
74431;BME280;62863;52.062;23.764;2024-03-02T22:54:55;1023.8;;;6;60.9
74431;BME280;62863;52.062;23.764;2024-03-02T22:59:52;1023.8;;;5.9;61
74431;BME280;62863;52.062;23.764;2024-03-02T23:04:39;1023.9;;;5.9;60.8
74431;BME280;62863;52.062;23.764;2024-03-02T23:09:43;1023.9;;;5.8;60.9
74431;BME280;62863;52.062;23.764;2024-03-02T23:14:53;1023.9;;;5.8;60.8
74431;BME280;62863;52.062;23.764;2024-03-02T23:19:39;1023.9;;;5.7;60.9
74431;BME280;62863;52.062;23.764;2024-03-02T23:24:33;1023.9;;;5.7;61
74431;BME280;62863;52.062;23.764;2024-03-02T23:29:57;1023.8;;;5.6;60.9
74431;BME280;62863;52.062;23.764;2024-03-02T23:35:03;1023.8;;;5.6;61.3
74431;BME280;62863;52.062;23.764;2024-03-02T23:39:39;1023.8;;;5.6;61.3
74431;BME280;62863;52.062;23.764;2024-03-02T23:44:53;1023.8;;;5.6;61.1
74431;BME280;62863;52.062;23.764;2024-03-02T23:49:27;1023.8;;;5.5;61.2
74431;BME280;62863;52.062;23.764;2024-03-02T23:54:33;1023.7;;;5.5;61.2
74431;BME280;62863;52.062;23.764;2024-03-02T23:59:45;1023.7;;;5.5;61.1
